sensor_id;sensor_type;location;lat;lon;timestamp;pressure;altitude;pressure_sealevel;temperature;humidity
29215;BME280;16252;49.816;7.964;2023-03-15T00:02:04;99739.72;;;6.24;58.68
29215;BME280;16252;49.816;7.964;2023-03-15T00:04:30;99726.53;;;6.08;58.84
29215;BME280;16252;49.816;7.964;2023-03-15T00:06:59;99736.84;;;6.13;58.85
29215;BME280;16252;49.816;7.964;2023-03-15T00:09:24;99714.19;;;5.93;58.73
29215;BME280;16252;49.816;7.964;2023-03-15T00:11:50;99722.44;;;5.88;58.75
29215;BME280;16252;49.816;7.964;2023-03-15T00:14:17;99738.94;;;5.93;58.90
29215;BME280;16252;49.816;7.964;2023-03-15T00:16:43;99717.38;;;5.69;59.08
29215;BME280;16252;49.816;7.964;2023-03-15T00:19:09;99750.09;;;5.84;59.21
29215;BME280;16252;49.816;7.964;2023-03-15T00:21:35;99726.09;;;5.71;59.01
29215;BME280;16252;49.816;7.964;2023-03-15T00:24:00;99759.03;;;5.83;59.25
29215;BME280;16252;49.816;7.964;2023-03-15T00:26:26;99755.88;;;5.76;59.16
29215;BME280;16252;49.816;7.964;2023-03-15T00:28:51;99742.31;;;5.67;59.19
29215;BME280;16252;49.816;7.964;2023-03-15T00:31:22;99761.00;;;5.79;59.45
29215;BME280;16252;49.816;7.964;2023-03-15T00:33:48;99750.84;;;5.72;59.25
29215;BME280;16252;49.816;7.964;2023-03-15T00:36:14;99715.06;;;5.49;59.21
29215;BME280;16252;49.816;7.964;2023-03-15T00:38:40;99755.56;;;5.67;59.18
29215;BME280;16252;49.816;7.964;2023-03-15T00:41:13;99759.00;;;5.69;59.26
29215;BME280;16252;49.816;7.964;2023-03-15T00:43:39;99749.47;;;5.50;59.14
29215;BME280;16252;49.816;7.964;2023-03-15T00:46:05;99769.41;;;5.57;59.24
29215;BME280;16252;49.816;7.964;2023-03-15T00:48:31;99762.16;;;5.45;59.14
29215;BME280;16252;49.816;7.964;2023-03-15T00:51:11;99763.78;;;5.48;59.25
29215;BME280;16252;49.816;7.964;2023-03-15T00:53:39;99789.19;;;5.52;59.42
29215;BME280;16252;49.816;7.964;2023-03-15T00:56:10;99781.50;;;5.47;59.16
29215;BME280;16252;49.816;7.964;2023-03-15T00:58:36;99772.38;;;5.37;59.25
29215;BME280;16252;49.816;7.964;2023-03-15T01:01:10;99774.16;;;5.36;59.44
29215;BME280;16252;49.816;7.964;2023-03-15T01:03:36;99775.56;;;5.28;59.21
29215;BME280;16252;49.816;7.964;2023-03-15T01:06:16;99784.47;;;5.27;59.93
29215;BME280;16252;49.816;7.964;2023-03-15T01:08:41;99788.97;;;5.40;59.09
29215;BME280;16252;49.816;7.964;2023-03-15T01:11:10;99760.53;;;5.12;59.30
29215;BME280;16252;49.816;7.964;2023-03-15T01:13:38;99781.56;;;5.15;59.44
29215;BME280;16252;49.816;7.964;2023-03-15T01:16:04;99784.59;;;5.09;59.20
29215;BME280;16252;49.816;7.964;2023-03-15T01:18:30;99798.44;;;5.14;59.49
29215;BME280;16252;49.816;7.964;2023-03-15T01:20:55;99788.53;;;5.02;59.52
29215;BME280;16252;49.816;7.964;2023-03-15T01:23:20;99779.03;;;4.98;59.33
29215;BME280;16252;49.816;7.964;2023-03-15T01:25:46;99775.88;;;4.91;59.50
29215;BME280;16252;49.816;7.964;2023-03-15T01:28:11;99768.38;;;4.84;59.68
29215;BME280;16252;49.816;7.964;2023-03-15T01:30:36;99779.13;;;4.81;59.68
29215;BME280;16252;49.816;7.964;2023-03-15T01:33:02;99800.41;;;4.95;59.75
29215;BME280;16252;49.816;7.964;2023-03-15T01:35:28;99787.84;;;4.83;60.01
29215;BME280;16252;49.816;7.964;2023-03-15T01:37:53;99792.97;;;4.86;60.01
29215;BME280;16252;49.816;7.964;2023-03-15T01:40:18;99799.16;;;4.86;59.88
29215;BME280;16252;49.816;7.964;2023-03-15T01:48:23;99796.22;;;4.91;59.97
29215;BME280;16252;49.816;7.964;2023-03-15T01:50:51;99768.03;;;4.74;60.06
29215;BME280;16252;49.816;7.964;2023-03-15T01:53:21;99810.25;;;4.93;59.99
29215;BME280;16252;49.816;7.964;2023-03-15T01:55:46;99786.31;;;4.78;60.27
29215;BME280;16252;49.816;7.964;2023-03-15T01:58:12;99800.66;;;4.90;60.35
29215;BME280;16252;49.816;7.964;2023-03-15T02:00:37;99770.75;;;4.72;59.93
29215;BME280;16252;49.816;7.964;2023-03-15T02:03:04;99801.09;;;4.98;59.98
29215;BME280;16252;49.816;7.964;2023-03-15T02:05:38;99783.50;;;4.82;60.07
29215;BME280;16252;49.816;7.964;2023-03-15T02:08:10;99813.31;;;5.01;59.74
29215;BME280;16252;49.816;7.964;2023-03-15T02:10:39;99802.41;;;4.91;59.90
29215;BME280;16252;49.816;7.964;2023-03-15T02:13:07;99795.34;;;4.90;59.84
29215;BME280;16252;49.816;7.964;2023-03-15T02:15:32;99811.88;;;4.95;59.84
29215;BME280;16252;49.816;7.964;2023-03-15T02:17:57;99818.03;;;4.96;59.84
29215;BME280;16252;49.816;7.964;2023-03-15T02:23:19;99820.41;;;5.00;59.80
29215;BME280;16252;49.816;7.964;2023-03-15T02:25:54;99823.59;;;4.91;59.72
29215;BME280;16252;49.816;7.964;2023-03-15T02:28:22;99789.53;;;4.68;59.74
29215;BME280;16252;49.816;7.964;2023-03-15T02:30:49;99808.69;;;4.73;59.66
29215;BME280;16252;49.816;7.964;2023-03-15T02:35:52;99819.31;;;4.73;59.74
29215;BME280;16252;49.816;7.964;2023-03-15T02:38:18;99832.13;;;4.81;60.12
29215;BME280;16252;49.816;7.964;2023-03-15T02:40:45;99785.78;;;4.56;59.87
29215;BME280;16252;49.816;7.964;2023-03-15T02:43:19;99807.19;;;4.69;60.26
29215;BME280;16252;49.816;7.964;2023-03-15T02:45:48;99825.44;;;4.73;59.96
29215;BME280;16252;49.816;7.964;2023-03-15T02:48:14;99773.38;;;4.41;59.70
29215;BME280;16252;49.816;7.964;2023-03-15T02:50:41;99828.97;;;4.74;59.75
29215;BME280;16252;49.816;7.964;2023-03-15T02:53:06;99823.75;;;4.72;59.92
29215;BME280;16252;49.816;7.964;2023-03-15T02:55:32;99827.97;;;4.76;60.00
29215;BME280;16252;49.816;7.964;2023-03-15T02:58:01;99803.16;;;4.62;59.88
29215;BME280;16252;49.816;7.964;2023-03-15T03:00:27;99806.72;;;4.61;59.75
29215;BME280;16252;49.816;7.964;2023-03-15T03:02:53;99854.47;;;4.76;59.85
29215;BME280;16252;49.816;7.964;2023-03-15T03:05:18;99865.84;;;4.78;59.76
29215;BME280;16252;49.816;7.964;2023-03-15T03:07:44;99836.28;;;4.53;59.86
29215;BME280;16252;49.816;7.964;2023-03-15T03:10:12;99805.94;;;4.43;59.96
29215;BME280;16252;49.816;7.964;2023-03-15T03:12:37;99854.16;;;4.65;59.87
29215;BME280;16252;49.816;7.964;2023-03-15T03:15:03;99850.41;;;4.53;60.06
29215;BME280;16252;49.816;7.964;2023-03-15T03:17:29;99871.47;;;4.72;60.07
29215;BME280;16252;49.816;7.964;2023-03-15T03:19:54;99876.75;;;4.72;60.01
29215;BME280;16252;49.816;7.964;2023-03-15T03:22:20;99856.22;;;4.60;60.02
29215;BME280;16252;49.816;7.964;2023-03-15T03:24:51;99838.19;;;4.51;59.88
29215;BME280;16252;49.816;7.964;2023-03-15T03:27:17;99878.97;;;4.64;60.02
29215;BME280;16252;49.816;7.964;2023-03-15T03:29:43;99870.25;;;4.62;60.12
29215;BME280;16252;49.816;7.964;2023-03-15T03:32:08;99868.53;;;4.61;60.20
29215;BME280;16252;49.816;7.964;2023-03-15T03:34:34;99861.63;;;4.59;60.11
29215;BME280;16252;49.816;7.964;2023-03-15T03:37:00;99828.13;;;4.40;60.13
29215;BME280;16252;49.816;7.964;2023-03-15T03:39:25;99842.69;;;4.49;60.17
29215;BME280;16252;49.816;7.964;2023-03-15T03:41:51;99822.78;;;4.42;60.17
29215;BME280;16252;49.816;7.964;2023-03-15T03:44:17;99859.41;;;4.67;60.33
29215;BME280;16252;49.816;7.964;2023-03-15T03:46:42;99842.19;;;4.58;60.28
29215;BME280;16252;49.816;7.964;2023-03-15T03:49:08;99845.78;;;4.57;60.18
29215;BME280;16252;49.816;7.964;2023-03-15T03:51:37;99833.13;;;4.46;60.22
29215;BME280;16252;49.816;7.964;2023-03-15T03:54:03;99848.03;;;4.65;60.06
29215;BME280;16252;49.816;7.964;2023-03-15T03:56:29;99862.13;;;4.65;59.99
29215;BME280;16252;49.816;7.964;2023-03-15T03:58:54;99840.84;;;4.51;60.11
29215;BME280;16252;49.816;7.964;2023-03-15T04:01:20;99856.63;;;4.52;60.20
29215;BME280;16252;49.816;7.964;2023-03-15T04:03:46;99891.47;;;4.78;60.27
29215;BME280;16252;49.816;7.964;2023-03-15T04:06:12;99873.50;;;4.67;60.15
29215;BME280;16252;49.816;7.964;2023-03-15T04:08:37;99861.34;;;4.63;60.24
29215;BME280;16252;49.816;7.964;2023-03-15T04:11:03;99901.06;;;4.81;60.29
29215;BME280;16252;49.816;7.964;2023-03-15T04:13:29;99909.47;;;4.89;60.30
29215;BME280;16252;49.816;7.964;2023-03-15T04:15:55;99857.16;;;4.59;60.45
29215;BME280;16252;49.816;7.964;2023-03-15T04:18:21;99904.16;;;4.89;60.20
29215;BME280;16252;49.816;7.964;2023-03-15T04:20:47;99783.16;;;4.23;60.29
29215;BME280;16252;49.816;7.964;2023-03-15T04:23:15;99904.34;;;5.02;60.20
29215;BME280;16252;49.816;7.964;2023-03-15T04:25:43;99915.97;;;4.99;60.23
29215;BME280;16252;49.816;7.964;2023-03-15T04:28:11;99882.44;;;4.82;60.43
29215;BME280;16252;49.816;7.964;2023-03-15T04:30:36;99743.66;;;4.02;60.19
29215;BME280;16252;49.816;7.964;2023-03-15T04:33:02;99876.69;;;4.90;60.26
29215;BME280;16252;49.816;7.964;2023-03-15T04:35:30;99911.09;;;5.07;60.07
29215;BME280;16252;49.816;7.964;2023-03-15T04:37:56;99907.59;;;5.07;59.92
29215;BME280;16252;49.816;7.964;2023-03-15T04:40:23;99904.84;;;5.08;59.83
29215;BME280;16252;49.816;7.964;2023-03-15T04:42:52;99891.50;;;4.94;59.99
29215;BME280;16252;49.816;7.964;2023-03-15T04:45:24;99911.88;;;5.09;59.96
29215;BME280;16252;49.816;7.964;2023-03-15T04:47:51;99911.34;;;5.03;59.86
29215;BME280;16252;49.816;7.964;2023-03-15T04:50:17;99912.03;;;5.06;59.98
29215;BME280;16252;49.816;7.964;2023-03-15T04:52:42;99896.03;;;4.92;59.83
29215;BME280;16252;49.816;7.964;2023-03-15T04:55:08;99904.34;;;5.02;59.80
29215;BME280;16252;49.816;7.964;2023-03-15T04:57:34;99864.69;;;4.67;59.75
29215;BME280;16252;49.816;7.964;2023-03-15T05:00:01;99894.91;;;4.80;59.83
29215;BME280;16252;49.816;7.964;2023-03-15T05:02:28;99889.94;;;4.74;59.68
29215;BME280;16252;49.816;7.964;2023-03-15T05:04:53;99886.59;;;4.70;59.75
29215;BME280;16252;49.816;7.964;2023-03-15T05:07:18;99894.09;;;4.62;59.69
29215;BME280;16252;49.816;7.964;2023-03-15T05:09:44;99885.19;;;4.63;59.79
29215;BME280;16252;49.816;7.964;2023-03-15T05:12:10;99842.81;;;4.30;59.95
29215;BME280;16252;49.816;7.964;2023-03-15T05:14:36;99903.06;;;4.60;60.01
29215;BME280;16252;49.816;7.964;2023-03-15T05:17:01;99906.16;;;4.68;60.02
29215;BME280;16252;49.816;7.964;2023-03-15T05:19:28;99904.63;;;4.64;60.16
29215;BME280;16252;49.816;7.964;2023-03-15T05:21:53;99886.63;;;4.53;60.03
29215;BME280;16252;49.816;7.964;2023-03-15T05:24:22;99931.22;;;4.78;60.12
29215;BME280;16252;49.816;7.964;2023-03-15T05:26:47;99912.47;;;4.65;60.13
29215;BME280;16252;49.816;7.964;2023-03-15T05:29:13;99902.81;;;4.64;60.09
29215;BME280;16252;49.816;7.964;2023-03-15T05:31:39;99913.19;;;4.69;60.04
29215;BME280;16252;49.816;7.964;2023-03-15T05:34:05;99931.00;;;4.83;60.06
29215;BME280;16252;49.816;7.964;2023-03-15T05:36:31;99873.88;;;4.44;59.99
29215;BME280;16252;49.816;7.964;2023-03-15T05:38:56;99939.72;;;4.85;59.99
29215;BME280;16252;49.816;7.964;2023-03-15T05:41:22;99901.81;;;4.67;59.95
29215;BME280;16252;49.816;7.964;2023-03-15T05:43:48;99896.91;;;4.59;59.98
29215;BME280;16252;49.816;7.964;2023-03-15T05:46:13;99914.28;;;4.65;59.99
29215;BME280;16252;49.816;7.964;2023-03-15T05:48:39;99959.38;;;4.81;59.96
29215;BME280;16252;49.816;7.964;2023-03-15T05:51:04;99914.84;;;4.54;59.91
29215;BME280;16252;49.816;7.964;2023-03-15T05:53:29;99943.09;;;4.71;60.02
29215;BME280;16252;49.816;7.964;2023-03-15T05:55:55;99809.50;;;3.93;60.16
29215;BME280;16252;49.816;7.964;2023-03-15T05:58:20;99966.00;;;4.89;60.03
29215;BME280;16252;49.816;7.964;2023-03-15T06:00:45;99948.75;;;4.81;59.93
29215;BME280;16252;49.816;7.964;2023-03-15T06:03:10;99941.16;;;4.74;60.06
29215;BME280;16252;49.816;7.964;2023-03-15T06:05:36;99974.56;;;4.94;60.02
29215;BME280;16252;49.816;7.964;2023-03-15T06:08:01;99958.44;;;4.82;60.05
29215;BME280;16252;49.816;7.964;2023-03-15T06:10:26;99965.38;;;4.84;59.87
29215;BME280;16252;49.816;7.964;2023-03-15T06:12:51;99951.94;;;4.71;59.89
29215;BME280;16252;49.816;7.964;2023-03-15T06:15:18;99929.56;;;4.60;60.10
29215;BME280;16252;49.816;7.964;2023-03-15T06:17:43;99957.84;;;4.76;60.04
29215;BME280;16252;49.816;7.964;2023-03-15T06:20:09;99987.38;;;4.86;60.05
29215;BME280;16252;49.816;7.964;2023-03-15T06:22:34;99994.13;;;4.92;60.02
29215;BME280;16252;49.816;7.964;2023-03-15T06:25:07;99987.78;;;4.78;60.09
29215;BME280;16252;49.816;7.964;2023-03-15T06:27:32;99932.69;;;4.50;60.21
29215;BME280;16252;49.816;7.964;2023-03-15T06:29:58;99986.75;;;4.81;60.40
29215;BME280;16252;49.816;7.964;2023-03-15T06:32:23;99989.25;;;4.84;60.39
29215;BME280;16252;49.816;7.964;2023-03-15T06:34:49;99921.06;;;4.53;60.76
29215;BME280;16252;49.816;7.964;2023-03-15T06:37:17;99892.00;;;4.36;60.90
29215;BME280;16252;49.816;7.964;2023-03-15T06:39:42;99959.47;;;4.79;60.73
29215;BME280;16252;49.816;7.964;2023-03-15T06:42:09;99902.41;;;4.39;60.92
29215;BME280;16252;49.816;7.964;2023-03-15T06:44:37;99966.63;;;4.77;61.11
29215;BME280;16252;49.816;7.964;2023-03-15T06:47:02;99960.72;;;4.72;61.18
29215;BME280;16252;49.816;7.964;2023-03-15T06:49:28;99986.66;;;4.83;61.17
29215;BME280;16252;49.816;7.964;2023-03-15T06:51:53;99952.31;;;4.64;61.10
29215;BME280;16252;49.816;7.964;2023-03-15T06:54:18;99961.19;;;4.63;61.49
29215;BME280;16252;49.816;7.964;2023-03-15T06:56:43;99975.22;;;4.65;61.55
29215;BME280;16252;49.816;7.964;2023-03-15T06:59:09;99996.72;;;4.76;61.51
29215;BME280;16252;49.816;7.964;2023-03-15T07:01:34;99971.56;;;4.67;61.34
29215;BME280;16252;49.816;7.964;2023-03-15T07:04:00;100016.84;;;4.80;61.68
29215;BME280;16252;49.816;7.964;2023-03-15T07:06:25;100005.06;;;4.68;61.73
29215;BME280;16252;49.816;7.964;2023-03-15T07:08:52;99989.25;;;4.67;61.98
29215;BME280;16252;49.816;7.964;2023-03-15T07:11:17;100023.72;;;4.84;61.86
29215;BME280;16252;49.816;7.964;2023-03-15T07:13:43;100007.09;;;4.81;62.10
29215;BME280;16252;49.816;7.964;2023-03-15T07:16:08;100024.38;;;4.88;61.92
29215;BME280;16252;49.816;7.964;2023-03-15T07:18:33;99983.41;;;4.60;61.81
29215;BME280;16252;49.816;7.964;2023-03-15T07:21:00;100023.47;;;4.89;62.30
29215;BME280;16252;49.816;7.964;2023-03-15T07:23:26;100032.03;;;4.94;62.13
29215;BME280;16252;49.816;7.964;2023-03-15T07:25:53;100040.69;;;4.97;62.30
29215;BME280;16252;49.816;7.964;2023-03-15T07:28:19;100026.75;;;4.94;62.26
29215;BME280;16252;49.816;7.964;2023-03-15T07:30:55;99998.03;;;4.85;62.13
29215;BME280;16252;49.816;7.964;2023-03-15T07:33:21;100050.53;;;5.11;62.27
29215;BME280;16252;49.816;7.964;2023-03-15T07:35:48;100029.59;;;5.07;62.13
29215;BME280;16252;49.816;7.964;2023-03-15T07:38:13;100008.31;;;4.91;61.97
29215;BME280;16252;49.816;7.964;2023-03-15T07:40:38;99988.69;;;4.77;61.91
29215;BME280;16252;49.816;7.964;2023-03-15T07:43:04;100051.25;;;5.15;62.22
29215;BME280;16252;49.816;7.964;2023-03-15T07:45:30;100055.72;;;5.14;62.30
29215;BME280;16252;49.816;7.964;2023-03-15T07:47:55;100034.91;;;5.07;62.43
29215;BME280;16252;49.816;7.964;2023-03-15T07:50:20;99989.66;;;4.76;62.21
29215;BME280;16252;49.816;7.964;2023-03-15T07:52:47;100040.44;;;5.02;62.42
29215;BME280;16252;49.816;7.964;2023-03-15T07:55:12;100047.22;;;5.08;62.63
29215;BME280;16252;49.816;7.964;2023-03-15T07:57:38;100029.53;;;4.91;62.58
29215;BME280;16252;49.816;7.964;2023-03-15T08:00:03;100048.16;;;5.07;62.44
29215;BME280;16252;49.816;7.964;2023-03-15T08:02:30;100033.06;;;4.91;62.69
29215;BME280;16252;49.816;7.964;2023-03-15T08:04:55;100031.31;;;4.90;62.81
29215;BME280;16252;49.816;7.964;2023-03-15T08:07:20;100037.41;;;4.92;62.85
29215;BME280;16252;49.816;7.964;2023-03-15T08:09:45;100027.28;;;4.83;62.84
29215;BME280;16252;49.816;7.964;2023-03-15T08:12:12;100051.03;;;5.02;63.11
29215;BME280;16252;49.816;7.964;2023-03-15T08:14:37;100027.13;;;4.86;63.15
29215;BME280;16252;49.816;7.964;2023-03-15T08:17:03;99953.44;;;4.42;63.34
29215;BME280;16252;49.816;7.964;2023-03-15T08:19:28;99954.84;;;4.49;63.45
29215;BME280;16252;49.816;7.964;2023-03-15T08:21:53;99990.56;;;4.75;63.16
29215;BME280;16252;49.816;7.964;2023-03-15T08:24:19;100100.03;;;5.46;63.27
29215;BME280;16252;49.816;7.964;2023-03-15T08:26:46;100104.38;;;5.47;63.60
29215;BME280;16252;49.816;7.964;2023-03-15T08:29:11;100049.66;;;5.28;63.67
29215;BME280;16252;49.816;7.964;2023-03-15T08:31:36;100090.88;;;5.51;63.48
29215;BME280;16252;49.816;7.964;2023-03-15T08:34:02;100091.47;;;5.56;63.33
29215;BME280;16252;49.816;7.964;2023-03-15T08:36:28;100087.81;;;5.59;63.38
29215;BME280;16252;49.816;7.964;2023-03-15T08:38:53;100096.63;;;5.59;63.54
29215;BME280;16252;49.816;7.964;2023-03-15T08:41:19;100111.75;;;5.75;63.80
29215;BME280;16252;49.816;7.964;2023-03-15T08:43:44;100095.28;;;5.68;63.74
29215;BME280;16252;49.816;7.964;2023-03-15T08:46:09;100119.00;;;5.87;63.50
29215;BME280;16252;49.816;7.964;2023-03-15T08:48:35;100113.69;;;5.87;63.34
29215;BME280;16252;49.816;7.964;2023-03-15T08:51:05;100112.00;;;5.86;63.38
29215;BME280;16252;49.816;7.964;2023-03-15T08:53:31;100145.97;;;6.13;63.19
29215;BME280;16252;49.816;7.964;2023-03-15T08:55:57;100131.41;;;6.04;63.11
29215;BME280;16252;49.816;7.964;2023-03-15T08:58:22;100127.78;;;6.05;63.24
29215;BME280;16252;49.816;7.964;2023-03-15T09:00:48;100139.72;;;6.14;63.07
29215;BME280;16252;49.816;7.964;2023-03-15T09:03:14;100161.31;;;6.23;63.08
29215;BME280;16252;49.816;7.964;2023-03-15T09:05:40;100118.97;;;6.04;63.39
29215;BME280;16252;49.816;7.964;2023-03-15T09:08:05;100150.44;;;6.28;63.63
29215;BME280;16252;49.816;7.964;2023-03-15T09:10:31;100133.53;;;6.29;63.88
29215;BME280;16252;49.816;7.964;2023-03-15T09:12:58;100104.31;;;6.29;64.24
29215;BME280;16252;49.816;7.964;2023-03-15T09:15:23;100136.91;;;6.63;64.32
29215;BME280;16252;49.816;7.964;2023-03-15T09:17:49;100160.59;;;6.98;64.66
29215;BME280;16252;49.816;7.964;2023-03-15T09:20:15;100140.09;;;7.00;63.83
29215;BME280;16252;49.816;7.964;2023-03-15T09:22:44;100157.44;;;7.21;63.56
29215;BME280;16252;49.816;7.964;2023-03-15T09:25:13;100172.31;;;7.40;63.19
29215;BME280;16252;49.816;7.964;2023-03-15T09:27:38;100161.56;;;7.41;63.09
29215;BME280;16252;49.816;7.964;2023-03-15T09:30:04;100147.41;;;7.41;62.65
29215;BME280;16252;49.816;7.964;2023-03-15T09:32:30;100150.72;;;7.44;62.30
29215;BME280;16252;49.816;7.964;2023-03-15T09:35:00;100182.53;;;7.76;62.21
29215;BME280;16252;49.816;7.964;2023-03-15T09:37:25;100184.69;;;7.69;62.45
29215;BME280;16252;49.816;7.964;2023-03-15T09:39:51;100167.97;;;7.67;62.65
29215;BME280;16252;49.816;7.964;2023-03-15T09:42:21;100185.34;;;7.87;62.79
29215;BME280;16252;49.816;7.964;2023-03-15T09:45:09;100167.75;;;7.85;62.83
29215;BME280;16252;49.816;7.964;2023-03-15T09:48:10;100171.75;;;8.06;62.80
29215;BME280;16252;49.816;7.964;2023-03-15T09:51:04;100177.25;;;8.17;62.57
29215;BME280;16252;49.816;7.964;2023-03-15T09:56:46;100167.72;;;8.28;62.22
29215;BME280;16252;49.816;7.964;2023-03-15T09:59:13;100192.28;;;8.47;63.11
29215;BME280;16252;49.816;7.964;2023-03-15T10:01:41;100142.56;;;8.32;62.86
29215;BME280;16252;49.816;7.964;2023-03-15T10:04:29;100193.50;;;8.83;62.43
29215;BME280;16252;49.816;7.964;2023-03-15T10:06:57;100197.72;;;9.00;62.38
29215;BME280;16252;49.816;7.964;2023-03-15T10:09:25;100200.44;;;9.13;61.83
29215;BME280;16252;49.816;7.964;2023-03-15T10:11:58;100200.53;;;9.24;61.18
29215;BME280;16252;49.816;7.964;2023-03-15T10:14:28;100203.97;;;9.26;60.87
29215;BME280;16252;49.816;7.964;2023-03-15T10:16:58;100198.00;;;9.22;60.84
29215;BME280;16252;49.816;7.964;2023-03-15T10:19:31;100197.47;;;9.30;60.84
29215;BME280;16252;49.816;7.964;2023-03-15T10:25:37;100207.84;;;9.35;60.26
29215;BME280;16252;49.816;7.964;2023-03-15T10:30:25;100185.72;;;9.20;60.24
29215;BME280;16252;49.816;7.964;2023-03-15T10:33:22;100205.78;;;9.25;60.14
29215;BME280;16252;49.816;7.964;2023-03-15T10:35:50;100206.53;;;9.15;59.97
29215;BME280;16252;49.816;7.964;2023-03-15T10:38:18;100192.69;;;8.95;59.94
29215;BME280;16252;49.816;7.964;2023-03-15T10:43:20;100213.28;;;8.93;59.92
29215;BME280;16252;49.816;7.964;2023-03-15T10:45:57;100184.72;;;8.81;59.96
29215;BME280;16252;49.816;7.964;2023-03-15T10:48:24;100210.34;;;8.83;60.45
29215;BME280;16252;49.816;7.964;2023-03-15T10:50:50;100153.31;;;8.59;60.69
29215;BME280;16252;49.816;7.964;2023-03-15T10:53:18;100175.53;;;8.72;60.68
29215;BME280;16252;49.816;7.964;2023-03-15T10:55:58;100188.91;;;8.85;60.65
29215;BME280;16252;49.816;7.964;2023-03-15T10:58:29;100199.63;;;8.98;60.79
29215;BME280;16252;49.816;7.964;2023-03-15T11:01:00;100197.97;;;9.09;60.31
29215;BME280;16252;49.816;7.964;2023-03-15T11:03:27;100201.72;;;9.20;60.29
29215;BME280;16252;49.816;7.964;2023-03-15T11:05:55;100213.38;;;9.31;60.31
29215;BME280;16252;49.816;7.964;2023-03-15T11:08:23;100193.53;;;9.36;60.00
29215;BME280;16252;49.816;7.964;2023-03-15T11:10:58;100183.94;;;9.46;60.31
29215;BME280;16252;49.816;7.964;2023-03-15T11:13:26;100207.56;;;9.77;59.98
29215;BME280;16252;49.816;7.964;2023-03-15T11:18:43;100217.78;;;10.22;59.41
29215;BME280;16252;49.816;7.964;2023-03-15T11:21:13;100205.81;;;10.28;58.40
29215;BME280;16252;49.816;7.964;2023-03-15T11:23:41;100188.59;;;10.32;57.98
29215;BME280;16252;49.816;7.964;2023-03-15T11:26:16;100209.41;;;10.52;57.68
29215;BME280;16252;49.816;7.964;2023-03-15T11:28:54;100219.53;;;10.60;56.69
29215;BME280;16252;49.816;7.964;2023-03-15T11:31:24;100200.75;;;10.49;57.34
29215;BME280;16252;49.816;7.964;2023-03-15T11:33:53;100204.38;;;10.48;56.92
29215;BME280;16252;49.816;7.964;2023-03-15T11:36:22;100204.38;;;10.48;57.53
29215;BME280;16252;49.816;7.964;2023-03-15T11:38:50;100204.19;;;10.51;57.42
29215;BME280;16252;49.816;7.964;2023-03-15T11:46:40;100245.25;;;10.87;56.12
29215;BME280;16252;49.816;7.964;2023-03-15T11:49:09;100243.44;;;10.87;56.84
29215;BME280;16252;49.816;7.964;2023-03-15T11:51:37;100222.34;;;10.82;56.74
29215;BME280;16252;49.816;7.964;2023-03-15T12:06:53;100229.25;;;10.98;55.64
29215;BME280;16252;49.816;7.964;2023-03-15T12:11:57;100225.06;;;11.06;55.05
29215;BME280;16252;49.816;7.964;2023-03-15T12:14:32;100236.53;;;11.20;55.04
29215;BME280;16252;49.816;7.964;2023-03-15T12:19:46;100213.88;;;11.13;54.89
29215;BME280;16252;49.816;7.964;2023-03-15T12:22:15;100231.47;;;11.28;55.35
29215;BME280;16252;49.816;7.964;2023-03-15T12:24:43;100244.38;;;11.34;55.10
29215;BME280;16252;49.816;7.964;2023-03-15T12:27:14;100254.88;;;11.37;54.92
29215;BME280;16252;49.816;7.964;2023-03-15T12:29:43;100261.66;;;11.30;54.84
29215;BME280;16252;49.816;7.964;2023-03-15T12:32:16;100242.34;;;11.14;55.26
29215;BME280;16252;49.816;7.964;2023-03-15T12:34:46;100244.13;;;11.02;55.36
29215;BME280;16252;49.816;7.964;2023-03-15T12:47:45;100265.31;;;10.68;56.14
29215;BME280;16252;49.816;7.964;2023-03-15T12:53:15;100255.72;;;10.53;55.86
29215;BME280;16252;49.816;7.964;2023-03-15T12:55:43;100260.06;;;10.30;55.60
29215;BME280;16252;49.816;7.964;2023-03-15T12:58:10;100274.69;;;10.24;55.00
29215;BME280;16252;49.816;7.964;2023-03-15T13:00:39;100274.78;;;10.10;55.17
29215;BME280;16252;49.816;7.964;2023-03-15T13:03:15;100261.44;;;9.84;54.28
29215;BME280;16252;49.816;7.964;2023-03-15T13:05:49;100281.41;;;9.79;55.15
29215;BME280;16252;49.816;7.964;2023-03-15T13:08:24;100291.34;;;9.64;55.66
29215;BME280;16252;49.816;7.964;2023-03-15T13:11:07;100289.47;;;9.39;56.20
29215;BME280;16252;49.816;7.964;2023-03-15T13:13:58;100306.75;;;9.33;56.63
29215;BME280;16252;49.816;7.964;2023-03-15T13:16:45;100271.78;;;8.96;57.08
29215;BME280;16252;49.816;7.964;2023-03-15T13:19:16;100303.22;;;9.05;57.64
29215;BME280;16252;49.816;7.964;2023-03-15T13:25:01;100239.00;;;8.67;58.03
29215;BME280;16252;49.816;7.964;2023-03-15T13:28:00;100250.31;;;8.71;58.22
29215;BME280;16252;49.816;7.964;2023-03-15T13:30:35;100237.47;;;8.63;59.27
29215;BME280;16252;49.816;7.964;2023-03-15T13:33:26;100261.94;;;8.84;59.32
29215;BME280;16252;49.816;7.964;2023-03-15T13:35:54;100250.69;;;8.79;59.12
29215;BME280;16252;49.816;7.964;2023-03-15T13:41:04;100242.50;;;8.82;58.95
29215;BME280;16252;49.816;7.964;2023-03-15T13:43:32;100267.41;;;8.95;58.92
29215;BME280;16252;49.816;7.964;2023-03-15T13:45:58;100250.19;;;8.86;58.83
29215;BME280;16252;49.816;7.964;2023-03-15T13:48:29;100257.88;;;8.91;58.60
29215;BME280;16252;49.816;7.964;2023-03-15T13:51:03;100253.50;;;8.90;58.70
29215;BME280;16252;49.816;7.964;2023-03-15T13:53:32;100272.53;;;8.98;58.85
29215;BME280;16252;49.816;7.964;2023-03-15T13:55:58;100264.53;;;8.98;59.14
29215;BME280;16252;49.816;7.964;2023-03-15T13:58:24;100246.78;;;8.84;59.15
29215;BME280;16252;49.816;7.964;2023-03-15T14:01:00;100268.22;;;9.10;59.35
29215;BME280;16252;49.816;7.964;2023-03-15T14:03:28;100264.78;;;9.08;59.29
29215;BME280;16252;49.816;7.964;2023-03-15T14:05:55;100249.53;;;9.10;59.34
29215;BME280;16252;49.816;7.964;2023-03-15T14:08:34;100241.66;;;9.21;58.91
29215;BME280;16252;49.816;7.964;2023-03-15T14:11:06;100267.03;;;9.41;59.10
29215;BME280;16252;49.816;7.964;2023-03-15T14:13:55;100211.44;;;9.21;59.23
29215;BME280;16252;49.816;7.964;2023-03-15T14:16:40;100252.09;;;9.51;58.11
29215;BME280;16252;49.816;7.964;2023-03-15T14:19:13;100269.63;;;9.55;58.02